sensor_id;sensor_type;location;lat;lon;timestamp;P1;durP1;ratioP1;P2;durP2;ratioP2
49340;SDS011;35209;51.050;13.678;2023-04-25T00:04:36;2.38;;;2.17;;
49340;SDS011;35209;51.050;13.678;2023-04-25T00:09:39;2.60;;;2.40;;
49340;SDS011;35209;51.050;13.678;2023-04-25T00:14:41;2.65;;;2.40;;
49340;SDS011;35209;51.050;13.678;2023-04-25T00:19:43;2.97;;;2.78;;
49340;SDS011;35209;51.050;13.678;2023-04-25T00:24:47;2.92;;;2.60;;
49340;SDS011;35209;51.050;13.678;2023-04-25T00:29:49;2.88;;;2.65;;
49340;SDS011;35209;51.050;13.678;2023-04-25T00:34:50;3.38;;;3.08;;
49340;SDS011;35209;51.050;13.678;2023-04-25T00:39:52;4.75;;;3.80;;
49340;SDS011;35209;51.050;13.678;2023-04-25T00:44:56;3.88;;;3.15;;
49340;SDS011;35209;51.050;13.678;2023-04-25T00:49:59;4.35;;;3.53;;
49340;SDS011;35209;51.050;13.678;2023-04-25T00:55:01;3.63;;;3.00;;
49340;SDS011;35209;51.050;13.678;2023-04-25T01:00:04;4.78;;;3.63;;
49340;SDS011;35209;51.050;13.678;2023-04-25T01:05:08;4.28;;;3.75;;
49340;SDS011;35209;51.050;13.678;2023-04-25T01:10:10;4.25;;;3.85;;
49340;SDS011;35209;51.050;13.678;2023-04-25T01:15:12;4.40;;;3.90;;
49340;SDS011;35209;51.050;13.678;2023-04-25T01:20:13;4.93;;;4.43;;
49340;SDS011;35209;51.050;13.678;2023-04-25T01:25:16;4.28;;;3.53;;
49340;SDS011;35209;51.050;13.678;2023-04-25T01:30:18;4.78;;;3.70;;
49340;SDS011;35209;51.050;13.678;2023-04-25T01:35:20;4.10;;;3.70;;
49340;SDS011;35209;51.050;13.678;2023-04-25T01:40:23;4.32;;;3.92;;
49340;SDS011;35209;51.050;13.678;2023-04-25T01:45:25;5.75;;;4.43;;
49340;SDS011;35209;51.050;13.678;2023-04-25T01:50:27;4.80;;;4.10;;
49340;SDS011;35209;51.050;13.678;2023-04-25T01:55:30;4.47;;;3.80;;
49340;SDS011;35209;51.050;13.678;2023-04-25T02:00:38;3.85;;;3.47;;
49340;SDS011;35209;51.050;13.678;2023-04-25T02:05:40;4.60;;;4.10;;
49340;SDS011;35209;51.050;13.678;2023-04-25T02:10:45;4.03;;;3.72;;
49340;SDS011;35209;51.050;13.678;2023-04-25T02:15:49;4.85;;;4.13;;
49340;SDS011;35209;51.050;13.678;2023-04-25T02:20:53;4.90;;;4.40;;
49340;SDS011;35209;51.050;13.678;2023-04-25T02:25:55;4.72;;;3.92;;
49340;SDS011;35209;51.050;13.678;2023-04-25T02:30:58;4.90;;;4.03;;
49340;SDS011;35209;51.050;13.678;2023-04-25T02:36:00;4.30;;;3.90;;
49340;SDS011;35209;51.050;13.678;2023-04-25T02:41:02;4.50;;;4.05;;
49340;SDS011;35209;51.050;13.678;2023-04-25T02:46:03;5.15;;;4.05;;
49340;SDS011;35209;51.050;13.678;2023-04-25T02:51:05;5.00;;;3.80;;
49340;SDS011;35209;51.050;13.678;2023-04-25T02:56:07;6.35;;;4.90;;
49340;SDS011;35209;51.050;13.678;2023-04-25T03:01:09;4.82;;;3.90;;
49340;SDS011;35209;51.050;13.678;2023-04-25T03:06:11;5.10;;;4.07;;
49340;SDS011;35209;51.050;13.678;2023-04-25T03:11:12;5.38;;;4.57;;
49340;SDS011;35209;51.050;13.678;2023-04-25T03:16:16;6.15;;;5.45;;
49340;SDS011;35209;51.050;13.678;2023-04-25T03:21:18;5.20;;;4.75;;
49340;SDS011;35209;51.050;13.678;2023-04-25T03:26:19;5.47;;;4.93;;
49340;SDS011;35209;51.050;13.678;2023-04-25T03:31:22;5.80;;;5.30;;
49340;SDS011;35209;51.050;13.678;2023-04-25T03:36:24;5.05;;;4.25;;
49340;SDS011;35209;51.050;13.678;2023-04-25T03:41:26;6.00;;;5.45;;
49340;SDS011;35209;51.050;13.678;2023-04-25T03:46:34;6.28;;;5.13;;
49340;SDS011;35209;51.050;13.678;2023-04-25T03:51:36;5.95;;;5.43;;
49340;SDS011;35209;51.050;13.678;2023-04-25T03:56:38;6.30;;;5.78;;
49340;SDS011;35209;51.050;13.678;2023-04-25T04:01:49;7.15;;;6.07;;
49340;SDS011;35209;51.050;13.678;2023-04-25T04:06:51;8.55;;;6.32;;
49340;SDS011;35209;51.050;13.678;2023-04-25T04:17:00;7.07;;;6.32;;
49340;SDS011;35209;51.050;13.678;2023-04-25T04:22:03;7.03;;;6.32;;
49340;SDS011;35209;51.050;13.678;2023-04-25T04:27:05;6.53;;;5.93;;
49340;SDS011;35209;51.050;13.678;2023-04-25T04:32:12;6.95;;;6.25;;
49340;SDS011;35209;51.050;13.678;2023-04-25T04:37:16;7.43;;;6.70;;
49340;SDS011;35209;51.050;13.678;2023-04-25T04:42:19;6.20;;;5.60;;
49340;SDS011;35209;51.050;13.678;2023-04-25T04:47:28;6.95;;;6.38;;
49340;SDS011;35209;51.050;13.678;2023-04-25T04:52:57;6.70;;;6.10;;
49340;SDS011;35209;51.050;13.678;2023-04-25T04:58:19;7.25;;;6.55;;
49340;SDS011;35209;51.050;13.678;2023-04-25T05:03:47;6.43;;;5.47;;
49340;SDS011;35209;51.050;13.678;2023-04-25T05:09:15;6.45;;;5.13;;
49340;SDS011;35209;51.050;13.678;2023-04-25T05:14:50;6.75;;;5.40;;
49340;SDS011;35209;51.050;13.678;2023-04-25T05:20:03;5.72;;;5.22;;
49340;SDS011;35209;51.050;13.678;2023-04-25T05:25:18;5.72;;;5.22;;
49340;SDS011;35209;51.050;13.678;2023-04-25T05:30:34;5.47;;;4.73;;
49340;SDS011;35209;51.050;13.678;2023-04-25T05:35:52;6.72;;;4.57;;
49340;SDS011;35209;51.050;13.678;2023-04-25T05:40:53;5.53;;;4.95;;
49340;SDS011;35209;51.050;13.678;2023-04-25T05:46:27;4.90;;;4.50;;
49340;SDS011;35209;51.050;13.678;2023-04-25T05:51:54;5.85;;;4.82;;
49340;SDS011;35209;51.050;13.678;2023-04-25T05:57:24;5.85;;;5.22;;
49340;SDS011;35209;51.050;13.678;2023-04-25T06:02:29;6.47;;;5.13;;
49340;SDS011;35209;51.050;13.678;2023-04-25T06:07:31;6.00;;;5.40;;
49340;SDS011;35209;51.050;13.678;2023-04-25T06:12:33;14.05;;;6.47;;
49340;SDS011;35209;51.050;13.678;2023-04-25T06:17:37;7.63;;;6.07;;
49340;SDS011;35209;51.050;13.678;2023-04-25T06:22:40;7.07;;;5.65;;
49340;SDS011;35209;51.050;13.678;2023-04-25T06:27:42;7.57;;;5.57;;
49340;SDS011;35209;51.050;13.678;2023-04-25T06:32:43;6.25;;;5.65;;
49340;SDS011;35209;51.050;13.678;2023-04-25T06:37:45;6.20;;;5.15;;
49340;SDS011;35209;51.050;13.678;2023-04-25T06:42:47;6.97;;;5.30;;
49340;SDS011;35209;51.050;13.678;2023-04-25T06:48:07;8.48;;;5.47;;
49340;SDS011;35209;51.050;13.678;2023-04-25T06:53:10;6.38;;;5.25;;
49340;SDS011;35209;51.050;13.678;2023-04-25T06:58:14;6.57;;;5.88;;
49340;SDS011;35209;51.050;13.678;2023-04-25T07:03:48;6.47;;;5.80;;
49340;SDS011;35209;51.050;13.678;2023-04-25T07:08:52;6.45;;;5.38;;
49340;SDS011;35209;51.050;13.678;2023-04-25T07:13:54;6.75;;;5.60;;
49340;SDS011;35209;51.050;13.678;2023-04-25T07:18:56;6.38;;;4.38;;
49340;SDS011;35209;51.050;13.678;2023-04-25T07:23:58;6.10;;;4.70;;
49340;SDS011;35209;51.050;13.678;2023-04-25T07:29:05;5.60;;;4.13;;
49340;SDS011;35209;51.050;13.678;2023-04-25T07:34:07;3.72;;;3.20;;
49340;SDS011;35209;51.050;13.678;2023-04-25T07:39:12;4.43;;;4.03;;
49340;SDS011;35209;51.050;13.678;2023-04-25T07:44:15;4.15;;;3.40;;
49340;SDS011;35209;51.050;13.678;2023-04-25T07:49:17;5.43;;;3.72;;
49340;SDS011;35209;51.050;13.678;2023-04-25T07:54:19;4.22;;;2.97;;
49340;SDS011;35209;51.050;13.678;2023-04-25T07:59:27;4.65;;;2.50;;
49340;SDS011;35209;51.050;13.678;2023-04-25T08:04:33;3.75;;;2.63;;
49340;SDS011;35209;51.050;13.678;2023-04-25T08:09:41;3.95;;;3.05;;
49340;SDS011;35209;51.050;13.678;2023-04-25T08:14:49;5.97;;;3.72;;
49340;SDS011;35209;51.050;13.678;2023-04-25T08:19:52;6.47;;;3.72;;
49340;SDS011;35209;51.050;13.678;2023-04-25T08:25:01;3.90;;;2.80;;
49340;SDS011;35209;51.050;13.678;2023-04-25T08:30:03;4.45;;;3.17;;
49340;SDS011;35209;51.050;13.678;2023-04-25T08:35:07;4.03;;;2.75;;
49340;SDS011;35209;51.050;13.678;2023-04-25T08:40:11;4.05;;;2.83;;
49340;SDS011;35209;51.050;13.678;2023-04-25T08:45:30;3.53;;;3.15;;
49340;SDS011;35209;51.050;13.678;2023-04-25T08:50:34;4.22;;;3.53;;
49340;SDS011;35209;51.050;13.678;2023-04-25T08:55:37;5.93;;;4.13;;
49340;SDS011;35209;51.050;13.678;2023-04-25T09:00:45;6.22;;;4.30;;
49340;SDS011;35209;51.050;13.678;2023-04-25T09:05:49;5.63;;;4.10;;
49340;SDS011;35209;51.050;13.678;2023-04-25T09:10:51;4.25;;;3.65;;
49340;SDS011;35209;51.050;13.678;2023-04-25T09:15:54;5.38;;;4.88;;
49340;SDS011;35209;51.050;13.678;2023-04-25T09:21:15;5.38;;;3.90;;
49340;SDS011;35209;51.050;13.678;2023-04-25T09:26:20;6.60;;;2.40;;
49340;SDS011;35209;51.050;13.678;2023-04-25T09:31:23;6.95;;;3.53;;
49340;SDS011;35209;51.050;13.678;2023-04-25T09:36:29;3.97;;;3.58;;
49340;SDS011;35209;51.050;13.678;2023-04-25T09:41:53;4.93;;;3.67;;
49340;SDS011;35209;51.050;13.678;2023-04-25T09:46:56;4.60;;;4.20;;
49340;SDS011;35209;51.050;13.678;2023-04-25T09:52:00;4.25;;;3.85;;
49340;SDS011;35209;51.050;13.678;2023-04-25T10:02:21;5.68;;;3.75;;
49340;SDS011;35209;51.050;13.678;2023-04-25T10:07:34;4.22;;;3.85;;
49340;SDS011;35209;51.050;13.678;2023-04-25T10:12:42;6.03;;;3.65;;
49340;SDS011;35209;51.050;13.678;2023-04-25T10:17:45;5.15;;;3.15;;
49340;SDS011;35209;51.050;13.678;2023-04-25T10:22:47;5.43;;;4.25;;
49340;SDS011;35209;51.050;13.678;2023-04-25T10:27:51;8.35;;;4.30;;
49340;SDS011;35209;51.050;13.678;2023-04-25T10:32:54;7.25;;;5.05;;
49340;SDS011;35209;51.050;13.678;2023-04-25T10:38:00;5.30;;;4.30;;
49340;SDS011;35209;51.050;13.678;2023-04-25T10:48:44;6.00;;;4.30;;
49340;SDS011;35209;51.050;13.678;2023-04-25T10:54:07;6.63;;;5.10;;
49340;SDS011;35209;51.050;13.678;2023-04-25T11:04:28;6.93;;;6.20;;
49340;SDS011;35209;51.050;13.678;2023-04-25T11:09:32;7.22;;;5.25;;
49340;SDS011;35209;51.050;13.678;2023-04-25T11:14:35;6.97;;;4.72;;
49340;SDS011;35209;51.050;13.678;2023-04-25T11:19:37;7.65;;;4.30;;
49340;SDS011;35209;51.050;13.678;2023-04-25T11:24:39;8.63;;;4.07;;
49340;SDS011;35209;51.050;13.678;2023-04-25T11:29:41;4.50;;;2.22;;
49340;SDS011;35209;51.050;13.678;2023-04-25T11:34:43;3.85;;;2.03;;
49340;SDS011;35209;51.050;13.678;2023-04-25T11:39:48;3.22;;;1.70;;
49340;SDS011;35209;51.050;13.678;2023-04-25T11:44:50;5.13;;;1.90;;
49340;SDS011;35209;51.050;13.678;2023-04-25T11:49:53;3.20;;;2.10;;
49340;SDS011;35209;51.050;13.678;2023-04-25T11:54:55;4.13;;;2.20;;
49340;SDS011;35209;51.050;13.678;2023-04-25T12:05:19;5.20;;;1.90;;
49340;SDS011;35209;51.050;13.678;2023-04-25T12:10:27;4.18;;;2.10;;
49340;SDS011;35209;51.050;13.678;2023-04-25T12:15:29;7.45;;;2.65;;
49340;SDS011;35209;51.050;13.678;2023-04-25T12:20:31;9.18;;;3.63;;
49340;SDS011;35209;51.050;13.678;2023-04-25T12:25:40;6.88;;;2.15;;
49340;SDS011;35209;51.050;13.678;2023-04-25T12:36:02;7.80;;;2.20;;
49340;SDS011;35209;51.050;13.678;2023-04-25T12:41:09;6.97;;;2.30;;
49340;SDS011;35209;51.050;13.678;2023-04-25T12:46:11;6.47;;;2.58;;
49340;SDS011;35209;51.050;13.678;2023-04-25T12:51:13;7.57;;;3.35;;
49340;SDS011;35209;51.050;13.678;2023-04-25T12:56:15;9.48;;;2.40;;
49340;SDS011;35209;51.050;13.678;2023-04-25T13:01:16;10.90;;;2.85;;
49340;SDS011;35209;51.050;13.678;2023-04-25T13:06:19;13.05;;;3.63;;
49340;SDS011;35209;51.050;13.678;2023-04-25T13:11:21;8.57;;;4.07;;
49340;SDS011;35209;51.050;13.678;2023-04-25T13:16:23;9.70;;;4.35;;
49340;SDS011;35209;51.050;13.678;2023-04-25T13:21:25;11.77;;;3.75;;
49340;SDS011;35209;51.050;13.678;2023-04-25T13:26:26;10.98;;;3.97;;
49340;SDS011;35209;51.050;13.678;2023-04-25T13:31:29;9.55;;;3.47;;
49340;SDS011;35209;51.050;13.678;2023-04-25T13:36:31;8.77;;;3.10;;
49340;SDS011;35209;51.050;13.678;2023-04-25T13:41:33;11.60;;;3.00;;
49340;SDS011;35209;51.050;13.678;2023-04-25T13:46:35;9.40;;;3.10;;
49340;SDS011;35209;51.050;13.678;2023-04-25T13:51:41;9.30;;;3.53;;
49340;SDS011;35209;51.050;13.678;2023-04-25T13:56:44;7.45;;;3.50;;
49340;SDS011;35209;51.050;13.678;2023-04-25T14:01:45;12.52;;;3.35;;
49340;SDS011;35209;51.050;13.678;2023-04-25T14:06:47;8.45;;;2.83;;
49340;SDS011;35209;51.050;13.678;2023-04-25T14:11:49;8.45;;;3.33;;
49340;SDS011;35209;51.050;13.678;2023-04-25T14:16:51;11.13;;;3.92;;
49340;SDS011;35209;51.050;13.678;2023-04-25T14:21:55;8.57;;;4.00;;
49340;SDS011;35209;51.050;13.678;2023-04-25T14:26:57;8.38;;;3.58;;
49340;SDS011;35209;51.050;13.678;2023-04-25T14:31:59;10.27;;;3.83;;
49340;SDS011;35209;51.050;13.678;2023-04-25T14:37:01;10.13;;;3.65;;
49340;SDS011;35209;51.050;13.678;2023-04-25T14:42:03;10.98;;;4.15;;
49340;SDS011;35209;51.050;13.678;2023-04-25T14:47:05;4.72;;;2.90;;
49340;SDS011;35209;51.050;13.678;2023-04-25T14:52:06;7.80;;;3.22;;
49340;SDS011;35209;51.050;13.678;2023-04-25T14:57:08;16.50;;;3.58;;
49340;SDS011;35209;51.050;13.678;2023-04-25T15:02:10;9.45;;;3.45;;
49340;SDS011;35209;51.050;13.678;2023-04-25T15:07:12;7.63;;;2.60;;
49340;SDS011;35209;51.050;13.678;2023-04-25T15:12:16;7.88;;;3.20;;
49340;SDS011;35209;51.050;13.678;2023-04-25T15:17:18;8.40;;;2.65;;
49340;SDS011;35209;51.050;13.678;2023-04-25T15:22:20;9.93;;;2.08;;
49340;SDS011;35209;51.050;13.678;2023-04-25T15:27:22;6.10;;;1.95;;
49340;SDS011;35209;51.050;13.678;2023-04-25T15:32:24;5.72;;;1.55;;
49340;SDS011;35209;51.050;13.678;2023-04-25T15:37:27;6.82;;;1.85;;
49340;SDS011;35209;51.050;13.678;2023-04-25T15:42:28;4.28;;;1.92;;
49340;SDS011;35209;51.050;13.678;2023-04-25T15:47:30;7.20;;;2.20;;
49340;SDS011;35209;51.050;13.678;2023-04-25T15:52:34;7.40;;;1.90;;
49340;SDS011;35209;51.050;13.678;2023-04-25T15:57:37;6.18;;;1.33;;
49340;SDS011;35209;51.050;13.678;2023-04-25T16:02:39;6.78;;;1.60;;
49340;SDS011;35209;51.050;13.678;2023-04-25T16:07:43;5.40;;;1.77;;
49340;SDS011;35209;51.050;13.678;2023-04-25T16:12:45;5.47;;;2.60;;
49340;SDS011;35209;51.050;13.678;2023-04-25T16:17:50;7.93;;;1.40;;
49340;SDS011;35209;51.050;13.678;2023-04-25T16:22:52;4.38;;;1.63;;
49340;SDS011;35209;51.050;13.678;2023-04-25T16:27:54;6.30;;;1.88;;
49340;SDS011;35209;51.050;13.678;2023-04-25T16:32:55;6.30;;;1.70;;
49340;SDS011;35209;51.050;13.678;2023-04-25T16:37:58;3.28;;;1.40;;
49340;SDS011;35209;51.050;13.678;2023-04-25T16:42:59;3.47;;;1.60;;
49340;SDS011;35209;51.050;13.678;2023-04-25T16:48:02;4.78;;;2.67;;
49340;SDS011;35209;51.050;13.678;2023-04-25T16:53:04;4.65;;;1.77;;
49340;SDS011;35209;51.050;13.678;2023-04-25T16:58:05;5.72;;;1.90;;
49340;SDS011;35209;51.050;13.678;2023-04-25T17:03:10;5.55;;;2.13;;
49340;SDS011;35209;51.050;13.678;2023-04-25T17:08:12;9.60;;;1.75;;
49340;SDS011;35209;51.050;13.678;2023-04-25T17:13:14;6.28;;;1.50;;
49340;SDS011;35209;51.050;13.678;2023-04-25T17:18:16;5.10;;;1.25;;
49340;SDS011;35209;51.050;13.678;2023-04-25T17:23:18;4.07;;;1.83;;
49340;SDS011;35209;51.050;13.678;2023-04-25T17:28:22;5.70;;;1.65;;
49340;SDS011;35209;51.050;13.678;2023-04-25T17:33:24;6.68;;;1.67;;
49340;SDS011;35209;51.050;13.678;2023-04-25T17:38:27;5.40;;;1.27;;
49340;SDS011;35209;51.050;13.678;2023-04-25T17:43:29;4.43;;;1.73;;
49340;SDS011;35209;51.050;13.678;2023-04-25T17:48:31;9.50;;;2.83;;
49340;SDS011;35209;51.050;13.678;2023-04-25T17:53:33;7.72;;;2.72;;
49340;SDS011;35209;51.050;13.678;2023-04-25T17:58:36;5.32;;;2.55;;
49340;SDS011;35209;51.050;13.678;2023-04-25T18:03:37;4.53;;;1.75;;
49340;SDS011;35209;51.050;13.678;2023-04-25T18:08:40;6.53;;;1.77;;
49340;SDS011;35209;51.050;13.678;2023-04-25T18:13:42;5.60;;;1.67;;
49340;SDS011;35209;51.050;13.678;2023-04-25T18:18:45;6.72;;;1.95;;
49340;SDS011;35209;51.050;13.678;2023-04-25T18:23:53;2.53;;;1.52;;
49340;SDS011;35209;51.050;13.678;2023-04-25T18:28:55;6.45;;;1.80;;
49340;SDS011;35209;51.050;13.678;2023-04-25T18:33:57;3.72;;;1.50;;
49340;SDS011;35209;51.050;13.678;2023-04-25T18:38:59;4.60;;;1.35;;
49340;SDS011;35209;51.050;13.678;2023-04-25T18:44:03;4.03;;;1.25;;
49340;SDS011;35209;51.050;13.678;2023-04-25T18:49:05;4.78;;;1.80;;
49340;SDS011;35209;51.050;13.678;2023-04-25T18:54:07;3.70;;;1.63;;
49340;SDS011;35209;51.050;13.678;2023-04-25T18:59:11;21.98;;;15.93;;
49340;SDS011;35209;51.050;13.678;2023-04-25T19:04:15;14.90;;;13.52;;
49340;SDS011;35209;51.050;13.678;2023-04-25T19:09:17;8.07;;;3.63;;
49340;SDS011;35209;51.050;13.678;2023-04-25T19:14:19;5.45;;;1.85;;
49340;SDS011;35209;51.050;13.678;2023-04-25T19:19:21;7.25;;;2.95;;
49340;SDS011;35209;51.050;13.678;2023-04-25T19:24:23;6.43;;;3.90;;
49340;SDS011;35209;51.050;13.678;2023-04-25T19:29:25;6.45;;;3.25;;
49340;SDS011;35209;51.050;13.678;2023-04-25T19:34:28;6.32;;;3.00;;
49340;SDS011;35209;51.050;13.678;2023-04-25T19:39:29;5.32;;;2.72;;
49340;SDS011;35209;51.050;13.678;2023-04-25T19:44:31;5.22;;;1.98;;
49340;SDS011;35209;51.050;13.678;2023-04-25T19:49:33;4.30;;;1.50;;
49340;SDS011;35209;51.050;13.678;2023-04-25T19:54:34;5.85;;;1.80;;
49340;SDS011;35209;51.050;13.678;2023-04-25T19:59:36;5.65;;;1.60;;
49340;SDS011;35209;51.050;13.678;2023-04-25T20:04:38;3.50;;;1.90;;
49340;SDS011;35209;51.050;13.678;2023-04-25T20:09:40;4.07;;;2.00;;
49340;SDS011;35209;51.050;13.678;2023-04-25T20:14:42;7.22;;;1.67;;
49340;SDS011;35209;51.050;13.678;2023-04-25T20:19:45;4.18;;;1.95;;
49340;SDS011;35209;51.050;13.678;2023-04-25T20:24:47;4.20;;;2.30;;
49340;SDS011;35209;51.050;13.678;2023-04-25T20:29:48;4.53;;;2.38;;
49340;SDS011;35209;51.050;13.678;2023-04-25T20:34:50;4.82;;;2.22;;
49340;SDS011;35209;51.050;13.678;2023-04-25T20:39:52;3.72;;;1.75;;
49340;SDS011;35209;51.050;13.678;2023-04-25T20:44:54;6.18;;;1.70;;
49340;SDS011;35209;51.050;13.678;2023-04-25T20:49:56;4.57;;;1.35;;
49340;SDS011;35209;51.050;13.678;2023-04-25T20:54:59;4.05;;;1.75;;
49340;SDS011;35209;51.050;13.678;2023-04-25T21:00:01;5.22;;;1.27;;
49340;SDS011;35209;51.050;13.678;2023-04-25T21:05:05;5.88;;;1.30;;
49340;SDS011;35209;51.050;13.678;2023-04-25T21:10:07;5.40;;;1.40;;
49340;SDS011;35209;51.050;13.678;2023-04-25T21:15:09;4.95;;;1.30;;
49340;SDS011;35209;51.050;13.678;2023-04-25T21:20:16;4.10;;;1.35;;
49340;SDS011;35209;51.050;13.678;2023-04-25T21:25:23;3.72;;;1.05;;
49340;SDS011;35209;51.050;13.678;2023-04-25T21:30:29;4.57;;;1.60;;
49340;SDS011;35209;51.050;13.678;2023-04-25T21:35:31;4.10;;;1.60;;
49340;SDS011;35209;51.050;13.678;2023-04-25T21:40:33;3.90;;;1.33;;
49340;SDS011;35209;51.050;13.678;2023-04-25T21:45:35;3.85;;;1.42;;
49340;SDS011;35209;51.050;13.678;2023-04-25T21:50:57;3.92;;;1.48;;
49340;SDS011;35209;51.050;13.678;2023-04-25T21:55:58;4.13;;;1.63;;
49340;SDS011;35209;51.050;13.678;2023-04-25T22:01:00;3.20;;;1.00;;
49340;SDS011;35209;51.050;13.678;2023-04-25T22:06:02;3.80;;;1.20;;
49340;SDS011;35209;51.050;13.678;2023-04-25T22:11:04;3.17;;;1.10;;
49340;SDS011;35209;51.050;13.678;2023-04-25T22:16:07;3.25;;;1.20;;
49340;SDS011;35209;51.050;13.678;2023-04-25T22:21:12;11.75;;;2.95;;
49340;SDS011;35209;51.050;13.678;2023-04-25T22:26:15;3.28;;;1.40;;
49340;SDS011;35209;51.050;13.678;2023-04-25T22:31:16;2.50;;;1.30;;
49340;SDS011;35209;51.050;13.678;2023-04-25T22:36:18;3.80;;;1.67;;
49340;SDS011;35209;51.050;13.678;2023-04-25T22:41:20;6.60;;;1.48;;
49340;SDS011;35209;51.050;13.678;2023-04-25T22:46:23;4.82;;;1.98;;
49340;SDS011;35209;51.050;13.678;2023-04-25T22:51:25;3.30;;;1.33;;
49340;SDS011;35209;51.050;13.678;2023-04-25T22:56:30;4.63;;;1.80;;
49340;SDS011;35209;51.050;13.678;2023-04-25T23:01:32;2.47;;;1.85;;
49340;SDS011;35209;51.050;13.678;2023-04-25T23:06:34;4.38;;;1.90;;
49340;SDS011;35209;51.050;13.678;2023-04-25T23:11:36;4.28;;;1.40;;
49340;SDS011;35209;51.050;13.678;2023-04-25T23:16:38;6.10;;;1.80;;
49340;SDS011;35209;51.050;13.678;2023-04-25T23:21:41;3.88;;;1.67;;
49340;SDS011;35209;51.050;13.678;2023-04-25T23:26:42;4.20;;;1.80;;
49340;SDS011;35209;51.050;13.678;2023-04-25T23:31:44;5.45;;;2.03;;
49340;SDS011;35209;51.050;13.678;2023-04-25T23:36:46;6.57;;;2.55;;
49340;SDS011;35209;51.050;13.678;2023-04-25T23:41:47;4.55;;;1.90;;
49340;SDS011;35209;51.050;13.678;2023-04-25T23:46:49;2.85;;;1.80;;
49340;SDS011;35209;51.050;13.678;2023-04-25T23:51:51;2.90;;;1.73;;
49340;SDS011;35209;51.050;13.678;2023-04-25T23:56:53;3.70;;;1.80;;
